Time;durP1;ratioP1;P1;durP2;ratioP2;P2;SDS_P1;SDS_P2;PMS_P1;PMS_P2;Temp;Humidity;BMP_temperature;BMP_pressure;BME280_temperature;BME280_humidity;BME280_pressure;Samples;Min_cycle;Max_cycle;Signal;HPM_P1;HPM_P2
2023/01/19 00:01:32;;;;;;;0.45;0.30;;;;;;;7.20;100.00;100967.28;5011820;28;20415;-87
2023/01/19 00:04:01;;;;;;;0.40;0.40;;;;;;;7.14;100.00;100972.16;5005768;28;20050;-79
2023/01/19 00:06:30;;;;;;;0.63;0.50;;;;;;;7.09;100.00;100981.34;5006025;28;20219;-81
2023/01/19 00:08:58;;;;;;;0.85;0.40;;;;;;;7.08;100.00;100979.59;5008340;28;20045;-83
2023/01/19 00:11:27;;;;;;;2.25;0.45;;;;;;;7.08;100.00;100987.31;5012146;28;20050;-86
2023/01/19 00:13:57;;;;;;;1.33;0.60;;;;;;;7.08;100.00;100984.75;5011122;28;20426;-83
2023/01/19 00:16:26;;;;;;;0.85;0.43;;;;;;;7.10;100.00;100989.16;5007559;28;20423;-85
2023/01/19 00:18:54;;;;;;;0.98;0.70;;;;;;;7.12;100.00;100992.69;5010901;28;20038;-81
2023/01/19 00:21:23;;;;;;;0.93;0.60;;;;;;;7.12;100.00;101008.13;5004457;28;20046;-80
2023/01/19 00:23:52;;;;;;;1.75;0.80;;;;;;;7.12;100.00;101002.06;5005049;28;20060;-80
2023/01/19 00:26:22;;;;;;;1.17;0.80;;;;;;;7.06;100.00;101001.81;5004007;28;20050;-79
2023/01/19 00:28:51;;;;;;;1.58;0.82;;;;;;;7.03;100.00;101002.53;5004937;28;20572;-80
2023/01/19 00:31:22;;;;;;;1.00;0.68;;;;;;;7.05;100.00;101010.31;5006782;28;20045;-83
2023/01/19 00:33:51;;;;;;;5.22;0.90;;;;;;;7.06;100.00;101006.94;5003548;28;20056;-79
2023/01/19 00:36:20;;;;;;;1.13;0.50;;;;;;;7.04;100.00;101019.72;5007706;28;20168;-77
2023/01/19 00:38:48;;;;;;;0.95;0.60;;;;;;;6.94;100.00;101012.38;5005264;28;20499;-79
2023/01/19 00:41:17;;;;;;;1.50;0.70;;;;;;;6.98;100.00;101034.84;5003915;28;20046;-78
2023/01/19 00:43:45;;;;;;;2.03;0.60;;;;;;;6.97;100.00;101037.38;5007237;28;20046;-79
2023/01/19 00:46:13;;;;;;;0.90;0.80;;;;;;;6.99;100.00;101046.06;5005829;28;20190;-78
2023/01/19 00:48:43;;;;;;;1.35;0.80;;;;;;;7.00;100.00;101058.09;5006478;28;20057;-78
2023/01/19 00:51:12;;;;;;;0.57;0.45;;;;;;;6.99;100.00;101064.06;5004646;28;20069;-78
2023/01/19 00:53:40;;;;;;;0.63;0.60;;;;;;;6.98;100.00;101062.28;5007411;28;20057;-78
2023/01/19 00:56:09;;;;;;;2.80;0.50;;;;;;;6.95;100.00;101075.00;5006946;28;20045;-79
2023/01/19 00:58:38;;;;;;;0.40;0.40;;;;;;;6.96;100.00;101074.19;5009175;28;20057;-77
2023/01/19 01:01:06;;;;;;;1.35;0.60;;;;;;;6.93;100.00;101073.22;4999820;28;20042;-78
2023/01/19 01:03:35;;;;;;;2.80;0.70;;;;;;;6.78;100.00;101063.88;5007627;28;20759;-78
2023/01/19 01:06:07;;;;;;;0.70;0.60;;;;;;;6.88;100.00;101078.97;4996262;28;20064;-79
2023/01/19 01:08:36;;;;;;;1.43;0.60;;;;;;;6.89;100.00;101075.56;4997680;28;20069;-78
2023/01/19 01:11:04;;;;;;;0.65;0.65;;;;;;;6.81;100.00;101067.47;5004764;28;20291;-77
2023/01/19 01:13:33;;;;;;;0.60;0.55;;;;;;;6.83;100.00;101077.88;5003276;28;20707;-77
2023/01/19 01:16:01;;;;;;;1.63;0.73;;;;;;;6.72;100.00;101061.88;5007639;28;20546;-77
2023/01/19 01:18:30;;;;;;;3.97;0.70;;;;;;;6.75;100.00;101079.16;5004163;28;20057;-78
2023/01/19 01:21:04;;;;;;;0.50;0.45;;;;;;;6.72;100.00;101080.75;5003651;28;20096;-78
2023/01/19 01:23:33;;;;;;;2.45;0.63;;;;;;;6.71;100.00;101090.97;5003363;28;20451;-78
2023/01/19 01:26:01;;;;;;;0.65;0.50;;;;;;;6.69;100.00;101087.47;5004527;28;20512;-78
2023/01/19 01:28:30;;;;;;;0.30;0.30;;;;;;;6.67;100.00;101089.06;5001933;28;20054;-79
2023/01/19 01:30:58;;;;;;;1.02;0.50;;;;;;;6.65;100.00;101096.69;4995420;28;20100;-77
2023/01/19 01:33:27;;;;;;;0.70;0.50;;;;;;;6.60;100.00;101100.72;5003646;28;20730;-79
2023/01/19 01:35:56;;;;;;;2.85;0.52;;;;;;;6.62;100.00;101103.34;5003208;28;20539;-77
2023/01/19 01:38:26;;;;;;;1.60;0.63;;;;;;;6.58;100.00;101098.88;5002932;28;20475;-77
2023/01/19 01:40:54;;;;;;;0.38;0.38;;;;;;;6.56;100.00;101110.78;5010282;28;20049;-76
2023/01/19 01:43:23;;;;;;;1.20;0.68;;;;;;;6.53;100.00;101116.66;5010156;28;20496;-77
2023/01/19 01:45:53;;;;;;;0.63;0.50;;;;;;;6.44;100.00;101103.31;5007241;28;20054;-77
2023/01/19 01:48:29;;;;;;;1.42;0.75;;;;;;;6.49;100.00;101118.16;5007008;28;20050;-76
2023/01/19 01:53:52;;;;;;;0.73;0.50;;;;;;;6.50;100.00;101122.53;4991792;28;20140;-77
2023/01/19 01:56:24;;;;;;;2.30;0.50;;;;;;;6.50;100.00;101127.66;4993404;28;20065;-78
2023/01/19 01:58:52;;;;;;;;;;;;;;;6.52;100.00;101126.84;4994629;28;20504;-78
2023/01/19 02:04:06;;;;;;;0.50;0.50;;;;;;;6.44;100.00;101132.47;4992554;28;20061;-77
2023/01/19 02:14:56;;;;;;;1.40;0.60;;;;;;;6.46;100.00;101146.28;4990365;28;20120;-79
2023/01/19 02:17:25;;;;;;;0.85;0.60;;;;;;;6.46;100.00;101148.88;4991474;28;20058;-78
2023/01/19 02:19:54;;;;;;;1.00;0.55;;;;;;;6.50;100.00;101145.66;4987511;28;20055;-77
2023/01/19 02:22:34;;;;;;;0.80;0.60;;;;;;;6.48;100.00;101148.91;4996931;28;20554;-76
2023/01/19 02:25:06;;;;;;;1.20;0.90;;;;;;;6.53;100.00;101156.88;4989603;28;20137;-78
2023/01/19 02:27:35;;;;;;;2.17;0.98;;;;;;;6.52;100.00;101152.56;4991683;28;20412;-78
2023/01/19 02:30:05;;;;;;;0.70;0.60;;;;;;;6.52;100.00;101158.56;4989700;28;20398;-78
2023/01/19 02:32:33;;;;;;;0.80;0.50;;;;;;;6.45;100.00;101144.50;4992137;28;20089;-79
2023/01/19 02:35:02;;;;;;;1.70;0.73;;;;;;;6.50;100.00;101161.09;4994834;28;20121;-78
2023/01/19 02:37:36;;;;;;;7.10;0.90;;;;;;;6.48;100.00;101167.81;4990937;28;20057;-79
2023/01/19 02:40:09;;;;;;;0.90;0.60;;;;;;;6.46;100.00;101166.84;4993076;28;20047;-79
2023/01/19 02:42:42;;;;;;;0.63;0.60;;;;;;;6.44;100.00;101172.72;4988595;28;20053;-77
2023/01/19 02:45:13;;;;;;;1.08;0.80;;;;;;;6.40;100.00;101181.94;4989495;28;20715;-78
2023/01/19 02:47:44;;;;;;;1.05;0.77;;;;;;;6.38;100.00;101185.25;4988042;28;20075;-81
2023/01/19 02:50:48;;;;;;;1.02;0.70;;;;;;;6.32;100.00;101183.22;4995321;28;20049;-79
2023/01/19 02:53:57;;;;;;;1.10;0.77;;;;;;;6.31;100.00;101201.13;4907229;29;20044;-79
2023/01/19 02:56:43;;;;;;;1.63;1.35;;;;;;;6.25;100.00;101199.09;4880301;29;20052;-79
2023/01/19 02:59:22;;;;;;;0.98;0.80;;;;;;;6.33;100.00;101205.56;4997528;28;20114;-80
2023/01/19 03:02:08;;;;;;;1.27;0.88;;;;;;;6.36;100.00;101209.97;5007913;28;20056;-80
2023/01/19 03:04:49;;;;;;;3.92;0.95;;;;;;;6.36;100.00;101216.00;5007977;28;20137;-80
2023/01/19 03:07:28;;;;;;;1.05;0.80;;;;;;;6.37;100.00;101220.34;5007400;28;20041;-77
2023/01/19 03:10:05;;;;;;;0.82;0.75;;;;;;;6.36;100.00;101216.00;5005864;28;20049;-80
2023/01/19 03:12:45;;;;;;;1.45;0.65;;;;;;;6.35;100.00;101216.81;5005619;28;20105;-77
2023/01/19 03:15:21;;;;;;;0.88;0.80;;;;;;;6.35;100.00;101229.66;5007526;28;20424;-77
2023/01/19 03:17:52;;;;;;;2.22;0.90;;;;;;;6.33;100.00;101225.25;5006492;28;20081;-77
2023/01/19 03:20:27;;;;;;;1.13;0.80;;;;;;;6.33;100.00;101241.53;5006539;28;20057;-77
2023/01/19 03:23:01;;;;;;;1.63;0.93;;;;;;;6.31;100.00;101232.84;5001644;28;20050;-78
2023/01/19 03:25:34;;;;;;;1.45;0.60;;;;;;;6.28;100.00;101237.84;5007286;28;20041;-77
2023/01/19 03:28:05;;;;;;;2.50;0.90;;;;;;;6.25;100.00;101245.38;5009002;28;20049;-76
2023/01/19 03:30:37;;;;;;;3.70;1.23;;;;;;;6.22;100.00;101245.22;5005713;28;20053;-77
2023/01/19 03:33:12;;;;;;;0.85;0.80;;;;;;;6.19;100.00;101242.47;5004789;28;20061;-77
2023/01/19 03:35:45;;;;;;;1.30;0.77;;;;;;;6.15;100.00;101246.56;5007257;28;20705;-77
2023/01/19 03:38:17;;;;;;;2.78;1.27;;;;;;;6.14;100.00;101247.38;5005948;28;20057;-76
2023/01/19 03:40:47;;;;;;;1.30;1.13;;;;;;;6.11;100.00;101254.00;5004500;28;20053;-77
2023/01/19 03:43:20;;;;;;;1.45;1.05;;;;;;;6.10;100.00;101257.38;5006934;28;20439;-77
2023/01/19 03:45:49;;;;;;;1.20;0.88;;;;;;;6.08;100.00;101254.72;5005253;28;20052;-80
2023/01/19 03:48:18;;;;;;;1.73;0.90;;;;;;;6.07;100.00;101258.09;5004429;28;20129;-82
2023/01/19 03:50:47;;;;;;;1.98;0.95;;;;;;;6.05;100.00;101258.00;5005029;28;20617;-82
2023/01/19 03:53:17;;;;;;;2.05;0.80;;;;;;;6.02;100.00;101256.94;5004547;28;20050;-80
2023/01/19 03:55:48;;;;;;;1.02;0.80;;;;;;;5.98;100.00;101258.47;5012067;28;20115;-84
2023/01/19 03:58:18;;;;;;;1.40;0.95;;;;;;;5.91;100.00;101246.06;5007168;28;20591;-82
2023/01/19 04:00:47;;;;;;;3.05;0.88;;;;;;;5.93;100.00;101264.97;5003574;28;20046;-80
2023/01/19 04:03:17;;;;;;;2.25;1.10;;;;;;;5.94;100.00;101268.47;5006999;28;20146;-83
2023/01/19 04:05:46;;;;;;;2.70;1.10;;;;;;;5.96;100.00;101270.34;5001970;28;20483;-81
2023/01/19 04:08:15;;;;;;;1.67;1.20;;;;;;;5.95;100.00;101271.13;5005186;28;20049;-82
2023/01/19 04:10:44;;;;;;;1.48;0.95;;;;;;;5.96;100.00;101270.34;5004365;28;20519;-85
2023/01/19 04:13:13;;;;;;;1.52;1.08;;;;;;;5.97;100.00;101281.50;5005313;28;20369;-81
2023/01/19 04:15:43;;;;;;;2.80;1.40;;;;;;;5.98;100.00;101284.16;5012435;28;20053;-83
2023/01/19 04:18:12;;;;;;;2.22;1.40;;;;;;;6.00;100.00;101287.69;5005754;28;20052;-82
2023/01/19 04:20:40;;;;;;;1.55;1.30;;;;;;;5.99;100.00;101288.47;5009036;28;20077;-83
2023/01/19 04:23:16;;;;;;;2.00;1.42;;;;;;;5.98;100.00;101284.16;5008723;28;20042;-84
2023/01/19 04:25:44;;;;;;;2.28;1.33;;;;;;;5.97;100.00;101290.06;5002379;28;20065;-78
2023/01/19 04:28:13;;;;;;;2.42;1.42;;;;;;;5.93;100.00;101295.78;5006398;28;20071;-86
2023/01/19 04:30:43;;;;;;;3.45;1.88;;;;;;;5.86;100.00;101291.13;5005034;28;20399;-84
2023/01/19 04:33:12;;;;;;;3.45;1.83;;;;;;;5.82;100.00;101296.91;5006415;28;20120;-83
2023/01/19 04:35:41;;;;;;;3.15;1.45;;;;;;;5.81;100.00;101305.38;5002144;28;20045;-82
2023/01/19 04:38:09;;;;;;;2.08;1.77;;;;;;;5.81;100.00;101310.53;5003045;28;20053;-80
2023/01/19 04:40:38;;;;;;;1.77;1.25;;;;;;;5.82;100.00;101312.31;5007042;28;20046;-76
2023/01/19 04:43:06;;;;;;;2.20;1.58;;;;;;;5.84;100.00;101316.72;5006388;28;20560;-75
2023/01/19 04:45:35;;;;;;;3.42;1.88;;;;;;;5.88;100.00;101315.22;5006043;28;20559;-84
2023/01/19 04:48:05;;;;;;;3.30;1.50;;;;;;;5.85;100.00;101315.91;5005697;28;20662;-76
2023/01/19 04:50:34;;;;;;;2.95;1.98;;;;;;;5.87;100.00;101329.75;5006806;28;20092;-77
2023/01/19 04:53:03;;;;;;;3.75;1.98;;;;;;;5.83;100.00;101325.22;5007442;28;20046;-84
2023/01/19 04:55:31;;;;;;;2.60;1.90;;;;;;;5.80;100.00;101326.75;5006761;28;20118;-81
2023/01/19 04:58:00;;;;;;;3.25;1.95;;;;;;;5.81;100.00;101331.06;5006305;28;20045;-75
2023/01/19 05:00:29;;;;;;;3.33;2.05;;;;;;;5.79;100.00;101333.53;5006791;28;20758;-85
2023/01/19 05:02:57;;;;;;;3.17;1.95;;;;;;;5.79;100.00;101337.78;5005643;28;20526;-82
2023/01/19 05:05:27;;;;;;;5.93;2.00;;;;;;;5.78;100.00;101331.78;4998902;28;20078;-80
2023/01/19 05:07:56;;;;;;;2.70;1.77;;;;;;;5.80;100.00;101345.59;5007656;28;20064;-85
2023/01/19 05:10:25;;;;;;;3.67;2.35;;;;;;;5.79;100.00;101348.94;5006608;28;20045;-84
2023/01/19 05:12:53;;;;;;;4.97;2.70;;;;;;;5.78;100.00;101347.19;5004336;28;20490;-81
2023/01/19 05:15:22;;;;;;;4.45;2.53;;;;;;;5.76;100.00;101342.75;5005056;28;20057;-78
2023/01/19 05:17:51;;;;;;;5.38;2.60;;;;;;;5.78;100.00;101346.31;5003726;28;20096;-77
2023/01/19 05:20:20;;;;;;;4.47;2.63;;;;;;;5.78;100.00;101351.44;5004715;28;20048;-78
2023/01/19 05:22:52;;;;;;;6.32;2.97;;;;;;;5.77;100.00;101355.69;5005495;28;20053;-78
2023/01/19 05:25:21;;;;;;;5.07;2.72;;;;;;;5.77;100.00;101355.69;5003823;28;20580;-82
2023/01/19 05:27:50;;;;;;;4.63;2.67;;;;;;;5.79;100.00;101353.19;5005856;28;20054;-79
2023/01/19 05:30:19;;;;;;;3.90;2.65;;;;;;;5.81;100.00;101367.91;5005634;28;20058;-77
2023/01/19 05:32:48;;;;;;;4.65;2.50;;;;;;;5.83;100.00;101368.00;5003698;28;20129;-79
2023/01/19 05:35:16;;;;;;;5.63;3.22;;;;;;;5.84;100.00;101377.47;5004046;28;20106;-86
2023/01/19 05:37:45;;;;;;;6.07;2.97;;;;;;;5.86;100.00;101381.91;5012526;28;20077;-82
2023/01/19 05:40:15;;;;;;;4.43;2.60;;;;;;;5.89;100.00;101388.91;5006759;28;20546;-84
2023/01/19 05:42:44;;;;;;;3.53;2.20;;;;;;;5.90;100.00;101382.09;5010141;28;20054;-85
2023/01/19 05:45:12;;;;;;;4.65;2.70;;;;;;;5.92;100.00;101398.47;5021440;28;20046;-86
2023/01/19 05:47:41;;;;;;;5.68;3.63;;;;;;;5.92;100.00;101398.47;5010135;28;20057;-86
2023/01/19 05:50:10;;;;;;;7.82;3.10;;;;;;;5.93;100.00;101403.69;5019098;28;20050;-84
2023/01/19 05:52:39;;;;;;;5.70;3.25;;;;;;;5.96;100.00;101414.19;5007938;28;20058;-81
2023/01/19 05:55:09;;;;;;;4.80;2.92;;;;;;;5.93;100.00;101403.69;5012286;28;20050;-84
2023/01/19 05:57:39;;;;;;;5.47;3.03;;;;;;;6.01;100.00;101411.88;5007996;28;20042;-86
2023/01/19 06:00:08;;;;;;;3.70;2.65;;;;;;;6.02;100.00;101414.53;5010072;28;20062;-85
2023/01/19 06:02:37;;;;;;;4.95;3.17;;;;;;;6.05;100.00;101427.56;5017225;28;20044;-84
2023/01/19 06:05:06;;;;;;;5.18;2.50;;;;;;;6.07;100.00;101427.66;5023395;28;20085;-87
2023/01/19 06:07:35;;;;;;;5.72;2.95;;;;;;;6.10;100.00;101432.09;5010063;28;20053;-77
2023/01/19 06:10:03;;;;;;;6.18;2.53;;;;;;;6.11;100.00;101428.72;5004362;28;20054;-78
2023/01/19 06:12:32;;;;;;;4.35;2.78;;;;;;;6.14;100.00;101444.31;5004882;28;20058;-78
2023/01/19 06:15:03;;;;;;;3.47;2.53;;;;;;;6.14;100.00;101441.72;5004844;28;20073;-84
2023/01/19 06:17:34;;;;;;;3.85;2.45;;;;;;;6.15;100.00;101446.09;5004187;28;20424;-82
2023/01/19 06:20:02;;;;;;;3.65;2.45;;;;;;;6.17;100.00;101454.78;5004303;28;20081;-83
2023/01/19 06:22:31;;;;;;;3.45;2.35;;;;;;;6.18;100.00;101456.53;5005279;28;20128;-83
2023/01/19 06:25:00;;;;;;;5.80;2.13;;;;;;;6.20;100.00;101454.94;5006990;28;20046;-83
2023/01/19 06:27:28;;;;;;;3.45;2.08;;;;;;;6.20;100.00;101460.09;5008934;28;20481;-82
2023/01/19 06:29:57;;;;;;;6.20;2.63;;;;;;;6.23;100.00;101457.69;5008750;28;20606;-83
2023/01/19 06:32:27;;;;;;;5.97;3.13;;;;;;;6.24;100.00;101467.19;5006207;28;20050;-83
2023/01/19 06:34:55;;;;;;;4.70;2.90;;;;;;;6.26;100.00;101468.16;5007731;28;20503;-82
2023/01/19 06:37:25;;;;;;;3.30;1.95;;;;;;;6.24;100.00;101467.19;5005732;28;20507;-82
2023/01/19 06:39:54;;;;;;;4.78;2.58;;;;;;;6.18;100.00;101461.69;5009153;28;20073;-83
2023/01/19 06:42:22;;;;;;;4.40;2.40;;;;;;;6.14;100.00;101470.91;5007364;28;20054;-82
2023/01/19 06:44:51;;;;;;;3.75;2.50;;;;;;;6.16;100.00;101473.53;5011509;28;20050;-83
2023/01/19 06:47:20;;;;;;;4.72;2.65;;;;;;;6.20;100.00;101476.38;5009092;28;20417;-82
2023/01/19 06:49:50;;;;;;;4.22;2.58;;;;;;;6.23;100.00;101470.53;5006860;28;20101;-84
2023/01/19 06:52:19;;;;;;;6.32;2.33;;;;;;;6.25;100.00;101490.41;5011377;28;20547;-83
2023/01/19 06:54:48;;;;;;;5.18;3.00;;;;;;;6.28;100.00;101494.84;5008282;28;20042;-83
2023/01/19 06:57:16;;;;;;;4.35;2.78;;;;;;;6.29;100.00;101491.47;5006798;28;20069;-83
2023/01/19 06:59:45;;;;;;;5.07;2.85;;;;;;;6.29;100.00;101497.47;5005671;28;20062;-82
2023/01/19 07:02:18;;;;;;;4.60;2.60;;;;;;;6.28;100.00;101499.97;5006646;28;20050;-82
2023/01/19 07:04:47;;;;;;;5.65;2.83;;;;;;;6.26;100.00;101496.44;5008428;28;20575;-81
2023/01/19 07:07:17;;;;;;;5.22;2.72;;;;;;;6.21;100.00;101498.72;5007029;28;20041;-83
2023/01/19 07:09:46;;;;;;;4.65;2.58;;;;;;;6.18;100.00;101503.66;5004544;28;20046;-83
2023/01/19 07:12:14;;;;;;;5.03;2.40;;;;;;;6.19;100.00;101512.28;5012370;28;20660;-83
2023/01/19 07:14:43;;;;;;;5.45;2.60;;;;;;;6.21;100.00;101516.72;5005250;28;20129;-83
2023/01/19 07:17:13;;;;;;;4.72;2.70;;;;;;;6.21;100.00;101523.56;5006444;28;20045;-82
2023/01/19 07:19:41;;;;;;;6.03;3.08;;;;;;;6.21;100.00;101532.13;5010059;28;20061;-80
2023/01/19 07:22:10;;;;;;;4.72;2.78;;;;;;;6.18;100.00;101533.63;5011733;28;20119;-82
2023/01/19 07:24:40;;;;;;;6.07;3.05;;;;;;;6.16;100.00;101532.63;5007617;28;20566;-82
2023/01/19 07:27:10;;;;;;;4.75;2.53;;;;;;;6.23;100.00;101538.25;5008896;28;20054;-81
2023/01/19 07:29:38;;;;;;;5.15;2.55;;;;;;;6.25;100.00;101540.91;5007155;28;20502;-81
2023/01/19 07:32:07;;;;;;;3.42;2.40;;;;;;;6.24;100.00;101546.84;5004795;28;20136;-80
2023/01/19 07:34:36;;;;;;;4.15;3.00;;;;;;;6.13;100.00;101535.91;5007525;28;20050;-82
2023/01/19 07:37:05;;;;;;;5.50;2.50;;;;;;;6.19;100.00;101548.28;5009505;28;20164;-79
2023/01/19 07:39:35;;;;;;;2.90;1.77;;;;;;;6.18;100.00;101554.19;5003533;28;20516;-81
2023/01/19 07:42:05;;;;;;;4.97;2.60;;;;;;;6.12;100.00;101546.13;5001529;28;20049;-81
2023/01/19 07:44:34;;;;;;;3.40;1.98;;;;;;;6.19;100.00;101550.84;5004859;28;20520;-81
2023/01/19 07:47:02;;;;;;;2.10;1.65;;;;;;;6.15;100.00;101557.47;5003166;28;20196;-82
2023/01/19 07:49:31;;;;;;;4.50;2.30;;;;;;;6.15;100.00;101554.88;5006809;28;20044;-81
2023/01/19 07:52:15;;;;;;;5.55;2.20;;;;;;;6.18;100.00;101564.47;5010157;28;20062;-82
2023/01/19 07:54:43;;;;;;;4.90;2.63;;;;;;;6.24;100.00;101564.84;5006614;28;20053;-82
2023/01/19 07:57:13;;;;;;;4.18;2.20;;;;;;;6.27;100.00;101555.59;5003728;28;20508;-83
2023/01/19 07:59:42;;;;;;;7.05;2.33;;;;;;;6.32;100.00;101558.47;5005302;28;20515;-83
2023/01/19 08:02:11;;;;;;;5.45;2.70;;;;;;;6.37;100.00;101563.88;5003248;28;20041;-82
2023/01/19 08:04:40;;;;;;;4.88;2.85;;;;;;;6.38;100.00;101552.81;5004518;28;20054;-82
2023/01/19 08:07:09;;;;;;;5.60;3.50;;;;;;;6.39;100.00;101562.28;5003737;28;20061;-82
2023/01/19 08:09:38;;;;;;;7.38;3.88;;;;;;;6.41;100.00;101566.72;5004873;28;20062;-82
2023/01/19 08:12:07;;;;;;;7.53;3.67;;;;;;;6.43;100.00;101565.13;5004751;28;20060;-82
2023/01/19 08:14:37;;;;;;;5.40;2.85;;;;;;;6.44;100.00;101564.34;5004743;28;20061;-83
2023/01/19 08:17:05;;;;;;;4.03;2.28;;;;;;;6.44;100.00;101572.06;5004195;28;20052;-82
2023/01/19 08:19:34;;;;;;;5.82;2.70;;;;;;;6.44;100.00;101574.63;5005051;28;20098;-81
2023/01/19 08:22:02;;;;;;;7.13;2.80;;;;;;;6.44;100.00;101579.75;5002439;28;20053;-81
2023/01/19 08:24:38;;;;;;;6.88;3.45;;;;;;;6.44;100.00;101577.19;5006823;28;20152;-81
2023/01/19 08:27:08;;;;;;;5.40;3.17;;;;;;;6.46;100.00;101585.88;5005432;28;20050;-81
2023/01/19 08:29:38;;;;;;;5.10;2.95;;;;;;;6.45;100.00;101594.38;5004110;28;20050;-82
2023/01/19 08:32:07;;;;;;;5.43;2.65;;;;;;;6.45;100.00;101590.94;5005296;28;20054;-81
2023/01/19 08:34:36;;;;;;;7.45;3.13;;;;;;;6.45;100.00;101603.78;5002034;28;20050;-81
2023/01/19 08:37:04;;;;;;;5.60;3.28;;;;;;;6.43;100.00;101588.25;5004993;28;20479;-81
2023/01/19 08:39:33;;;;;;;6.78;3.53;;;;;;;6.44;100.00;101599.47;5004041;28;20922;-81
2023/01/19 08:42:01;;;;;;;3.55;2.53;;;;;;;6.42;100.00;101607.06;5003323;28;20082;-81
2023/01/19 08:44:30;;;;;;;6.88;2.83;;;;;;;6.43;100.00;101608.81;5006590;28;20755;-82
2023/01/19 08:47:00;;;;;;;5.88;3.10;;;;;;;6.44;100.00;101610.63;5004560;28;20042;-82
2023/01/19 08:49:29;;;;;;;6.90;3.45;;;;;;;6.44;100.00;101615.75;5003170;28;20053;-82
2023/01/19 08:52:04;;;;;;;5.65;3.58;;;;;;;6.43;100.00;101624.25;5008237;28;20085;-81
2023/01/19 08:54:33;;;;;;;4.32;2.47;;;;;;;6.42;100.00;101622.50;5008544;28;20046;-78
2023/01/19 08:57:01;;;;;;;4.50;2.05;;;;;;;6.39;100.00;101623.97;5004454;28;20054;-78
2023/01/19 08:59:30;;;;;;;3.50;1.40;;;;;;;6.38;100.00;101629.94;5006588;28;20076;-82
2023/01/19 09:02:00;;;;;;;2.75;1.40;;;;;;;6.35;100.00;101630.63;5003048;28;20057;-81
2023/01/19 09:04:28;;;;;;;2.22;1.45;;;;;;;6.31;100.00;101638.94;4998578;28;20104;-78
2023/01/19 09:06:57;;;;;;;1.90;1.58;;;;;;;6.29;100.00;101635.38;5002621;28;20058;-80
2023/01/19 09:09:25;;;;;;;2.17;1.55;;;;;;;6.27;100.00;101640.41;4995057;28;20085;-82
2023/01/19 09:11:55;;;;;;;2.45;1.38;;;;;;;6.28;100.00;101638.75;5002797;28;20120;-81
2023/01/19 09:14:24;;;;;;;1.60;1.10;;;;;;;6.27;100.00;101652.41;5003791;28;20056;-82
2023/01/19 09:16:52;;;;;;;2.08;1.35;;;;;;;6.25;100.00;101648.84;5006041;28;20057;-81
2023/01/19 09:19:23;;;;;;;1.95;1.40;;;;;;;6.24;100.00;101647.97;5002514;28;20065;-81
2023/01/19 09:21:51;;;;;;;2.50;1.50;;;;;;;6.24;100.00;101652.22;5004231;28;20057;-81
2023/01/19 09:24:20;;;;;;;1.67;1.20;;;;;;;6.24;100.00;101653.09;5005214;28;20038;-81
2023/01/19 09:26:48;;;;;;;2.08;1.27;;;;;;;6.22;100.00;101654.69;5004286;28;20042;-82
2023/01/19 09:29:17;;;;;;;1.42;1.10;;;;;;;6.23;100.00;101660.69;5003966;28;20049;-81
2023/01/19 09:31:45;;;;;;;1.80;1.15;;;;;;;6.21;100.00;101658.06;5003748;28;20057;-83
2023/01/19 09:34:14;;;;;;;1.17;1.00;;;;;;;6.20;100.00;101660.53;5003703;28;20042;-83
2023/01/19 09:36:44;;;;;;;2.15;0.80;;;;;;;6.19;100.00;101664.78;5006107;28;20076;-84
2023/01/19 09:39:13;;;;;;;1.73;1.10;;;;;;;6.17;100.00;101661.22;5004069;28;20050;-83
2023/01/19 09:41:47;;;;;;;2.70;1.33;;;;;;;6.17;100.00;101662.91;5002358;28;20535;-82
2023/01/19 09:44:20;;;;;;;2.13;1.33;;;;;;;6.17;100.00;101658.66;5007613;28;20077;-82
2023/01/19 09:46:49;;;;;;;2.28;1.17;;;;;;;6.20;100.00;101666.53;5003237;28;20065;-82
2023/01/19 09:49:21;;;;;;;3.63;1.40;;;;;;;6.21;100.00;101667.47;5003995;28;20484;-82
2023/01/19 09:51:52;;;;;;;2.72;1.40;;;;;;;6.21;100.00;101664.88;5005316;28;20096;-84
2023/01/19 09:54:24;;;;;;;2.45;1.30;;;;;;;6.21;100.00;101672.59;5005606;28;20057;-83
2023/01/19 09:56:54;;;;;;;1.83;1.42;;;;;;;6.21;100.00;101673.47;5000420;28;20046;-84
2023/01/19 09:59:25;;;;;;;2.03;1.25;;;;;;;6.20;100.00;101671.69;5004796;28;20053;-85
2023/01/19 10:02:16;;;;;;;1.85;1.27;;;;;;;6.21;100.00;101685.44;5007426;28;20077;-84
2023/01/19 10:04:55;;;;;;;1.83;1.40;;;;;;;6.13;100.00;101678.94;5004106;28;20138;-84
2023/01/19 10:07:47;;;;;;;2.22;1.10;;;;;;;6.19;100.00;101700.75;5009008;28;20050;-83
2023/01/19 10:10:21;;;;;;;1.53;0.93;;;;;;;6.19;100.00;101707.59;5006481;28;20140;-84
2023/01/19 10:13:00;;;;;;;1.65;1.00;;;;;;;6.18;100.00;101713.50;5006833;28;20045;-84
2023/01/19 10:15:38;;;;;;;2.78;1.58;;;;;;;6.16;100.00;101720.22;5007825;28;20049;-85
2023/01/19 10:18:17;;;;;;;1.92;1.23;;;;;;;6.15;100.00;101724.47;5006434;28;20049;-84
2023/01/19 10:20:50;;;;;;;2.80;1.52;;;;;;;6.15;100.00;101737.34;5006305;28;20522;-83
2023/01/19 10:23:24;;;;;;;;;;;;;;;6.12;100.00;101738.84;5010112;28;20160;-83
2023/01/19 10:25:54;;;;;;;2.63;1.45;;;;;;;6.10;100.00;101745.56;5005604;28;20505;-81
2023/01/19 10:28:26;;;;;;;2.60;1.73;;;;;;;6.09;100.00;101744.66;5008692;28;20045;-82
2023/01/19 10:30:56;;;;;;;2.37;1.53;;;;;;;6.07;100.00;101754.84;5004868;28;20050;-82
2023/01/19 10:33:25;;;;;;;2.58;1.63;;;;;;;6.08;100.00;101759.19;5008405;28;20138;-83
2023/01/19 10:35:53;;;;;;;3.03;1.80;;;;;;;6.08;100.00;101748.91;5007728;28;20506;-83
2023/01/19 10:38:23;;;;;;;2.63;1.73;;;;;;;6.07;100.00;101751.41;5006795;28;20054;-82
2023/01/19 10:40:58;;;;;;;3.25;1.50;;;;;;;6.05;100.00;101748.72;5010984;28;20058;-82
2023/01/19 10:43:42;;;;;;;4.40;1.50;;;;;;;6.06;100.00;101755.63;5008262;28;20050;-82
2023/01/19 10:46:21;;;;;;;3.95;1.40;;;;;;;6.06;100.00;101745.34;5005846;28;20049;-83
2023/01/19 10:48:51;;;;;;;2.60;1.58;;;;;;;6.06;100.00;101755.63;5008205;28;20053;-83
2023/01/19 10:51:20;;;;;;;3.17;1.52;;;;;;;6.06;100.00;101755.63;5011147;28;20054;-82
2023/01/19 10:54:02;;;;;;;2.60;1.38;;;;;;;6.06;100.00;101760.75;5005662;28;20085;-83
2023/01/19 10:56:36;;;;;;;3.70;1.50;;;;;;;6.06;100.00;101765.00;5007011;28;20630;-83
2023/01/19 10:59:07;;;;;;;2.67;1.45;;;;;;;6.05;100.00;101769.28;5007586;28;20479;-82
2023/01/19 11:01:36;;;;;;;3.55;1.40;;;;;;;6.03;100.00;101770.84;5003124;28;20046;-84
2023/01/19 11:04:27;;;;;;;3.75;1.73;;;;;;;6.01;100.00;101784.41;5007390;28;20077;-80
2023/01/19 11:07:13;;;;;;;2.75;1.60;;;;;;;5.99;100.00;101789.44;5005030;28;20050;-82
2023/01/19 11:09:44;;;;;;;3.30;1.88;;;;;;;6.00;100.00;101788.66;5005469;28;20657;-81
2023/01/19 11:12:21;;;;;;;4.05;1.70;;;;;;;5.97;100.00;101785.88;5007512;28;20050;-80
2023/01/19 11:14:52;;;;;;;2.20;1.70;;;;;;;5.93;100.00;101788.09;5005642;28;20077;-81
2023/01/19 11:17:24;;;;;;;2.33;1.50;;;;;;;5.86;100.00;101776.53;5003289;28;20468;-80
2023/01/19 11:20:01;;;;;;;2.00;1.80;;;;;;;5.92;100.00;101792.34;5005741;28;20081;-80
2023/01/19 11:22:33;;;;;;;3.65;1.77;;;;;;;5.92;100.00;101789.78;5006624;28;20632;-80
2023/01/19 11:25:05;;;;;;;3.20;2.00;;;;;;;5.90;100.00;101799.06;5006115;28;20046;-79
2023/01/19 11:27:37;;;;;;;2.75;2.00;;;;;;;5.80;100.00;101797.59;5006580;28;20570;-79
2023/01/19 11:30:16;;;;;;;2.70;1.70;;;;;;;5.82;100.00;101805.41;5003590;28;20134;-81
2023/01/19 11:32:48;;;;;;;2.90;1.70;;;;;;;5.83;100.00;101799.47;5005514;28;20287;-82
2023/01/19 11:35:37;;;;;;;2.97;1.70;;;;;;;5.84;100.00;101814.06;5006405;28;20144;-82
2023/01/19 11:38:18;;;;;;;3.13;1.73;;;;;;;5.83;100.00;101812.31;4997102;28;20046;-81
2023/01/19 11:40:54;;;;;;;2.33;1.63;;;;;;;5.83;100.00;101812.31;4998909;28;20050;-81
2023/01/19 11:43:25;;;;;;;4.93;2.58;;;;;;;5.79;100.00;101815.47;5004374;28;20070;-80
2023/01/19 11:45:55;;;;;;;4.50;2.10;;;;;;;5.70;100.00;101810.59;5004310;28;20064;-79
2023/01/19 11:48:33;;;;;;;3.75;2.08;;;;;;;5.61;100.00;101816.03;5010260;28;20871;-82
2023/01/19 11:51:05;;;;;;;3.40;1.75;;;;;;;5.61;100.00;101816.03;5006827;28;20490;-81
2023/01/19 11:53:35;;;;;;;2.72;1.75;;;;;;;5.63;100.00;101824.69;5007131;28;20065;-82
2023/01/19 11:56:10;;;;;;;3.13;2.05;;;;;;;5.62;100.00;101828.06;5004621;28;20053;-82
2023/01/19 11:58:40;;;;;;;4.18;2.00;;;;;;;5.66;100.00;101829.19;5004801;28;20109;-81